sensor_id;sensor_type;location;lat;lon;timestamp;P1;durP1;ratioP1;P2;durP2;ratioP2
30133;SDS011;16946;49.984;10.672;2023-05-16T00:00:08;12.27;;;10.10;;
30133;SDS011;16946;49.984;10.672;2023-05-16T00:00:39;10.10;;;8.73;;
30133;SDS011;16946;49.984;10.672;2023-05-16T00:01:10;9.20;;;8.30;;
30133;SDS011;16946;49.984;10.672;2023-05-16T00:01:41;9.85;;;8.95;;
30133;SDS011;16946;49.984;10.672;2023-05-16T00:02:12;9.93;;;9.03;;
30133;SDS011;16946;49.984;10.672;2023-05-16T00:02:42;9.23;;;8.33;;
30133;SDS011;16946;49.984;10.672;2023-05-16T00:03:13;9.33;;;8.43;;
30133;SDS011;16946;49.984;10.672;2023-05-16T00:03:44;10.40;;;9.17;;
30133;SDS011;16946;49.984;10.672;2023-05-16T00:04:14;11.07;;;10.00;;
30133;SDS011;16946;49.984;10.672;2023-05-16T00:04:46;9.77;;;8.98;;
30133;SDS011;16946;49.984;10.672;2023-05-16T00:05:17;10.00;;;9.10;;
30133;SDS011;16946;49.984;10.672;2023-05-16T00:05:47;9.77;;;8.77;;
30133;SDS011;16946;49.984;10.672;2023-05-16T00:06:19;10.20;;;9.20;;
30133;SDS011;16946;49.984;10.672;2023-05-16T00:06:50;10.57;;;8.47;;
30133;SDS011;16946;49.984;10.672;2023-05-16T00:07:20;9.50;;;8.70;;
30133;SDS011;16946;49.984;10.672;2023-05-16T00:07:51;10.17;;;9.17;;
30133;SDS011;16946;49.984;10.672;2023-05-16T00:08:21;10.30;;;9.30;;
30133;SDS011;16946;49.984;10.672;2023-05-16T00:08:52;9.03;;;8.23;;
30133;SDS011;16946;49.984;10.672;2023-05-16T00:09:22;9.07;;;8.27;;
30133;SDS011;16946;49.984;10.672;2023-05-16T00:09:53;9.93;;;8.80;;
30133;SDS011;16946;49.984;10.672;2023-05-16T00:10:23;9.37;;;8.40;;
30133;SDS011;16946;49.984;10.672;2023-05-16T00:10:55;9.45;;;8.40;;
30133;SDS011;16946;49.984;10.672;2023-05-16T00:11:25;9.10;;;8.30;;
30133;SDS011;16946;49.984;10.672;2023-05-16T00:11:56;9.20;;;8.50;;
30133;SDS011;16946;49.984;10.672;2023-05-16T00:12:26;10.07;;;9.10;;
30133;SDS011;16946;49.984;10.672;2023-05-16T00:12:58;12.38;;;9.30;;
30133;SDS011;16946;49.984;10.672;2023-05-16T00:13:30;10.43;;;9.05;;
30133;SDS011;16946;49.984;10.672;2023-05-16T00:14:01;8.73;;;7.93;;
30133;SDS011;16946;49.984;10.672;2023-05-16T00:14:31;8.57;;;7.90;;
30133;SDS011;16946;49.984;10.672;2023-05-16T00:15:02;9.43;;;8.60;;
30133;SDS011;16946;49.984;10.672;2023-05-16T00:15:34;10.18;;;9.18;;
30133;SDS011;16946;49.984;10.672;2023-05-16T00:16:05;9.57;;;8.67;;
30133;SDS011;16946;49.984;10.672;2023-05-16T00:16:35;8.73;;;7.90;;
30133;SDS011;16946;49.984;10.672;2023-05-16T00:17:06;9.97;;;8.20;;
30133;SDS011;16946;49.984;10.672;2023-05-16T00:17:40;10.95;;;8.95;;
30133;SDS011;16946;49.984;10.672;2023-05-16T00:18:15;10.23;;;9.23;;
30133;SDS011;16946;49.984;10.672;2023-05-16T00:18:46;12.37;;;9.07;;
30133;SDS011;16946;49.984;10.672;2023-05-16T00:19:17;9.98;;;9.07;;
30133;SDS011;16946;49.984;10.672;2023-05-16T00:19:47;9.77;;;8.57;;
30133;SDS011;16946;49.984;10.672;2023-05-16T00:20:18;9.30;;;8.40;;
30133;SDS011;16946;49.984;10.672;2023-05-16T00:20:52;10.27;;;9.27;;
30133;SDS011;16946;49.984;10.672;2023-05-16T00:21:23;9.73;;;8.82;;
30133;SDS011;16946;49.984;10.672;2023-05-16T00:21:54;9.27;;;8.47;;
30133;SDS011;16946;49.984;10.672;2023-05-16T00:22:24;9.77;;;8.87;;
30133;SDS011;16946;49.984;10.672;2023-05-16T00:22:55;9.33;;;8.43;;
30133;SDS011;16946;49.984;10.672;2023-05-16T00:23:30;9.02;;;8.23;;
30133;SDS011;16946;49.984;10.672;2023-05-16T00:24:01;9.75;;;8.80;;
30133;SDS011;16946;49.984;10.672;2023-05-16T00:24:33;9.90;;;8.90;;
30133;SDS011;16946;49.984;10.672;2023-05-16T00:25:03;9.60;;;8.73;;
30133;SDS011;16946;49.984;10.672;2023-05-16T00:25:34;8.37;;;7.57;;
30133;SDS011;16946;49.984;10.672;2023-05-16T00:26:05;9.97;;;9.07;;
30133;SDS011;16946;49.984;10.672;2023-05-16T00:26:36;10.47;;;8.53;;
30133;SDS011;16946;49.984;10.672;2023-05-16T00:27:06;9.13;;;8.37;;
30133;SDS011;16946;49.984;10.672;2023-05-16T00:27:37;9.33;;;8.43;;
30133;SDS011;16946;49.984;10.672;2023-05-16T00:28:07;8.47;;;7.67;;
30133;SDS011;16946;49.984;10.672;2023-05-16T00:28:38;8.90;;;8.07;;
30133;SDS011;16946;49.984;10.672;2023-05-16T00:29:08;9.20;;;8.50;;
30133;SDS011;16946;49.984;10.672;2023-05-16T00:29:39;8.57;;;7.77;;
30133;SDS011;16946;49.984;10.672;2023-05-16T00:30:10;11.13;;;7.90;;
30133;SDS011;16946;49.984;10.672;2023-05-16T00:30:40;9.90;;;8.70;;
30133;SDS011;16946;49.984;10.672;2023-05-16T00:31:11;9.00;;;8.10;;
30133;SDS011;16946;49.984;10.672;2023-05-16T00:31:42;10.00;;;9.17;;
30133;SDS011;16946;49.984;10.672;2023-05-16T00:32:12;12.23;;;9.73;;
30133;SDS011;16946;49.984;10.672;2023-05-16T00:32:43;10.27;;;9.03;;
30133;SDS011;16946;49.984;10.672;2023-05-16T00:33:13;9.90;;;9.00;;
30133;SDS011;16946;49.984;10.672;2023-05-16T00:33:44;9.83;;;8.93;;
30133;SDS011;16946;49.984;10.672;2023-05-16T00:34:15;9.53;;;8.63;;
30133;SDS011;16946;49.984;10.672;2023-05-16T00:34:45;11.47;;;8.50;;
30133;SDS011;16946;49.984;10.672;2023-05-16T00:35:16;10.30;;;9.30;;
30133;SDS011;16946;49.984;10.672;2023-05-16T00:35:47;11.10;;;10.10;;
30133;SDS011;16946;49.984;10.672;2023-05-16T00:36:18;11.40;;;10.40;;
30133;SDS011;16946;49.984;10.672;2023-05-16T00:36:48;10.10;;;9.20;;
30133;SDS011;16946;49.984;10.672;2023-05-16T00:37:19;11.80;;;9.53;;
30133;SDS011;16946;49.984;10.672;2023-05-16T00:37:49;14.07;;;8.90;;
30133;SDS011;16946;49.984;10.672;2023-05-16T00:38:20;10.67;;;9.57;;
30133;SDS011;16946;49.984;10.672;2023-05-16T00:38:50;10.20;;;9.20;;
30133;SDS011;16946;49.984;10.672;2023-05-16T00:39:21;10.30;;;9.40;;
30133;SDS011;16946;49.984;10.672;2023-05-16T00:39:51;10.07;;;9.13;;
30133;SDS011;16946;49.984;10.672;2023-05-16T00:40:22;10.27;;;9.37;;
30133;SDS011;16946;49.984;10.672;2023-05-16T00:40:53;10.77;;;9.73;;
30133;SDS011;16946;49.984;10.672;2023-05-16T00:41:23;10.17;;;9.30;;
30133;SDS011;16946;49.984;10.672;2023-05-16T00:41:55;11.18;;;10.10;;
30133;SDS011;16946;49.984;10.672;2023-05-16T00:42:26;10.18;;;9.27;;
30133;SDS011;16946;49.984;10.672;2023-05-16T00:42:57;9.70;;;8.80;;
30133;SDS011;16946;49.984;10.672;2023-05-16T00:43:28;9.50;;;8.43;;
30133;SDS011;16946;49.984;10.672;2023-05-16T00:43:58;10.17;;;8.70;;
30133;SDS011;16946;49.984;10.672;2023-05-16T00:44:29;10.80;;;9.10;;
30133;SDS011;16946;49.984;10.672;2023-05-16T00:45:00;10.40;;;9.50;;
30133;SDS011;16946;49.984;10.672;2023-05-16T00:45:31;9.80;;;8.87;;
30133;SDS011;16946;49.984;10.672;2023-05-16T00:46:01;10.07;;;8.83;;
30133;SDS011;16946;49.984;10.672;2023-05-16T00:46:32;9.73;;;8.80;;
30133;SDS011;16946;49.984;10.672;2023-05-16T00:47:03;9.87;;;8.93;;
30133;SDS011;16946;49.984;10.672;2023-05-16T00:47:34;9.63;;;8.73;;
30133;SDS011;16946;49.984;10.672;2023-05-16T00:48:05;9.82;;;8.82;;
30133;SDS011;16946;49.984;10.672;2023-05-16T00:48:35;9.50;;;8.70;;
30133;SDS011;16946;49.984;10.672;2023-05-16T00:49:06;13.30;;;8.70;;
30133;SDS011;16946;49.984;10.672;2023-05-16T00:49:37;9.35;;;8.55;;
30133;SDS011;16946;49.984;10.672;2023-05-16T00:50:08;10.20;;;9.30;;
30133;SDS011;16946;49.984;10.672;2023-05-16T00:50:39;9.48;;;8.57;;
30133;SDS011;16946;49.984;10.672;2023-05-16T00:51:10;11.70;;;9.27;;
30133;SDS011;16946;49.984;10.672;2023-05-16T00:51:41;13.63;;;9.43;;
30133;SDS011;16946;49.984;10.672;2023-05-16T00:52:11;10.43;;;9.57;;
30133;SDS011;16946;49.984;10.672;2023-05-16T00:52:42;9.77;;;8.93;;
30133;SDS011;16946;49.984;10.672;2023-05-16T00:53:13;9.07;;;8.27;;
30133;SDS011;16946;49.984;10.672;2023-05-16T00:53:44;9.67;;;8.73;;
30133;SDS011;16946;49.984;10.672;2023-05-16T00:54:14;9.27;;;8.47;;
30133;SDS011;16946;49.984;10.672;2023-05-16T00:54:45;9.47;;;8.57;;
30133;SDS011;16946;49.984;10.672;2023-05-16T00:55:16;10.23;;;8.73;;
30133;SDS011;16946;49.984;10.672;2023-05-16T00:55:46;9.70;;;8.80;;
30133;SDS011;16946;49.984;10.672;2023-05-16T00:56:17;9.73;;;8.63;;
30133;SDS011;16946;49.984;10.672;2023-05-16T00:56:48;9.30;;;8.57;;
30133;SDS011;16946;49.984;10.672;2023-05-16T00:57:18;9.60;;;8.70;;
30133;SDS011;16946;49.984;10.672;2023-05-16T00:57:49;9.93;;;8.90;;
30133;SDS011;16946;49.984;10.672;2023-05-16T00:58:21;12.70;;;8.48;;
30133;SDS011;16946;49.984;10.672;2023-05-16T00:58:52;9.05;;;7.82;;
30133;SDS011;16946;49.984;10.672;2023-05-16T00:59:23;9.73;;;8.70;;
30133;SDS011;16946;49.984;10.672;2023-05-16T00:59:54;10.75;;;8.80;;
30133;SDS011;16946;49.984;10.672;2023-05-16T01:00:25;10.30;;;8.30;;
30133;SDS011;16946;49.984;10.672;2023-05-16T01:00:56;9.53;;;8.63;;
30133;SDS011;16946;49.984;10.672;2023-05-16T01:01:27;10.52;;;9.57;;
30133;SDS011;16946;49.984;10.672;2023-05-16T01:01:58;11.23;;;9.35;;
30133;SDS011;16946;49.984;10.672;2023-05-16T01:02:29;9.73;;;8.82;;
30133;SDS011;16946;49.984;10.672;2023-05-16T01:03:00;9.52;;;8.57;;
30133;SDS011;16946;49.984;10.672;2023-05-16T01:03:30;9.10;;;8.20;;
30133;SDS011;16946;49.984;10.672;2023-05-16T01:04:01;10.47;;;9.47;;
30133;SDS011;16946;49.984;10.672;2023-05-16T01:04:32;11.23;;;8.73;;
30133;SDS011;16946;49.984;10.672;2023-05-16T01:05:03;9.90;;;9.00;;
30133;SDS011;16946;49.984;10.672;2023-05-16T01:05:37;9.90;;;9.02;;
30133;SDS011;16946;49.984;10.672;2023-05-16T01:06:08;10.27;;;9.23;;
30133;SDS011;16946;49.984;10.672;2023-05-16T01:06:39;10.75;;;9.68;;
30133;SDS011;16946;49.984;10.672;2023-05-16T01:07:09;9.53;;;8.63;;
30133;SDS011;16946;49.984;10.672;2023-05-16T01:07:40;10.70;;;9.07;;
30133;SDS011;16946;49.984;10.672;2023-05-16T01:08:11;10.13;;;9.23;;
30133;SDS011;16946;49.984;10.672;2023-05-16T01:08:41;9.40;;;8.43;;
30133;SDS011;16946;49.984;10.672;2023-05-16T01:09:12;12.18;;;8.95;;
30133;SDS011;16946;49.984;10.672;2023-05-16T01:09:43;9.52;;;8.63;;
30133;SDS011;16946;49.984;10.672;2023-05-16T01:10:14;10.80;;;9.17;;
30133;SDS011;16946;49.984;10.672;2023-05-16T01:15:12;9.43;;;8.63;;
30133;SDS011;16946;49.984;10.672;2023-05-16T01:15:59;9.57;;;8.68;;
30133;SDS011;16946;49.984;10.672;2023-05-16T01:16:45;9.85;;;8.90;;
30133;SDS011;16946;49.984;10.672;2023-05-16T01:18:07;10.00;;;8.60;;
30133;SDS011;16946;49.984;10.672;2023-05-16T01:20:12;9.40;;;8.57;;
30133;SDS011;16946;49.984;10.672;2023-05-16T01:21:03;9.35;;;8.55;;
30133;SDS011;16946;49.984;10.672;2023-05-16T01:21:48;9.73;;;8.70;;
30133;SDS011;16946;49.984;10.672;2023-05-16T01:22:37;9.25;;;8.45;;
30133;SDS011;16946;49.984;10.672;2023-05-16T01:24:08;11.55;;;8.43;;
30133;SDS011;16946;49.984;10.672;2023-05-16T01:26:46;9.45;;;8.55;;
30133;SDS011;16946;49.984;10.672;2023-05-16T01:27:18;10.00;;;8.65;;
30133;SDS011;16946;49.984;10.672;2023-05-16T01:27:51;8.98;;;8.27;;
30133;SDS011;16946;49.984;10.672;2023-05-16T01:28:22;9.68;;;8.88;;
30133;SDS011;16946;49.984;10.672;2023-05-16T01:28:55;10.40;;;9.32;;
30133;SDS011;16946;49.984;10.672;2023-05-16T01:29:25;13.37;;;9.23;;
30133;SDS011;16946;49.984;10.672;2023-05-16T01:29:56;11.33;;;10.13;;
30133;SDS011;16946;49.984;10.672;2023-05-16T01:30:31;8.97;;;8.17;;
30133;SDS011;16946;49.984;10.672;2023-05-16T01:31:04;9.25;;;8.45;;
30133;SDS011;16946;49.984;10.672;2023-05-16T01:31:35;10.65;;;9.23;;
30133;SDS011;16946;49.984;10.672;2023-05-16T01:32:05;10.53;;;9.47;;
30133;SDS011;16946;49.984;10.672;2023-05-16T01:32:36;10.47;;;9.67;;
30133;SDS011;16946;49.984;10.672;2023-05-16T01:33:07;11.00;;;9.93;;
30133;SDS011;16946;49.984;10.672;2023-05-16T01:33:38;9.73;;;8.82;;
30133;SDS011;16946;49.984;10.672;2023-05-16T01:34:09;10.63;;;9.63;;
30133;SDS011;16946;49.984;10.672;2023-05-16T01:34:39;11.73;;;10.53;;
30133;SDS011;16946;49.984;10.672;2023-05-16T01:35:11;9.93;;;9.10;;
30133;SDS011;16946;49.984;10.672;2023-05-16T01:37:18;10.70;;;9.60;;
30133;SDS011;16946;49.984;10.672;2023-05-16T01:38:07;11.63;;;10.63;;
30133;SDS011;16946;49.984;10.672;2023-05-16T01:41:34;11.52;;;10.52;;
30133;SDS011;16946;49.984;10.672;2023-05-16T01:42:15;14.68;;;12.05;;
30133;SDS011;16946;49.984;10.672;2023-05-16T01:42:48;12.98;;;11.80;;
30133;SDS011;16946;49.984;10.672;2023-05-16T01:43:27;14.18;;;12.77;;
30133;SDS011;16946;49.984;10.672;2023-05-16T01:44:04;14.20;;;12.73;;
30133;SDS011;16946;49.984;10.672;2023-05-16T01:44:44;14.13;;;12.80;;
30133;SDS011;16946;49.984;10.672;2023-05-16T01:45:59;14.00;;;12.80;;
30133;SDS011;16946;49.984;10.672;2023-05-16T01:46:37;13.65;;;12.45;;
30133;SDS011;16946;49.984;10.672;2023-05-16T01:47:13;15.20;;;13.65;;
30133;SDS011;16946;49.984;10.672;2023-05-16T01:47:47;14.90;;;13.50;;
30133;SDS011;16946;49.984;10.672;2023-05-16T01:48:50;13.98;;;12.75;;
30133;SDS011;16946;49.984;10.672;2023-05-16T01:50:39;13.20;;;12.00;;
30133;SDS011;16946;49.984;10.672;2023-05-16T01:51:13;15.60;;;14.10;;
30133;SDS011;16946;49.984;10.672;2023-05-16T01:51:58;15.05;;;13.55;;
30133;SDS011;16946;49.984;10.672;2023-05-16T01:52:31;15.88;;;14.27;;
30133;SDS011;16946;49.984;10.672;2023-05-16T01:53:14;13.73;;;12.52;;
30133;SDS011;16946;49.984;10.672;2023-05-16T01:53:51;13.68;;;12.32;;
30133;SDS011;16946;49.984;10.672;2023-05-16T01:54:29;14.50;;;13.13;;
30133;SDS011;16946;49.984;10.672;2023-05-16T01:55:00;13.88;;;12.48;;
30133;SDS011;16946;49.984;10.672;2023-05-16T01:55:38;13.05;;;11.75;;
30133;SDS011;16946;49.984;10.672;2023-05-16T01:56:14;13.07;;;11.98;;
30133;SDS011;16946;49.984;10.672;2023-05-16T01:56:52;13.43;;;11.60;;
30133;SDS011;16946;49.984;10.672;2023-05-16T01:57:25;13.60;;;12.43;;
30133;SDS011;16946;49.984;10.672;2023-05-16T01:57:57;13.27;;;11.98;;
30133;SDS011;16946;49.984;10.672;2023-05-16T01:58:30;13.98;;;12.77;;
30133;SDS011;16946;49.984;10.672;2023-05-16T01:59:03;13.63;;;12.43;;
30133;SDS011;16946;49.984;10.672;2023-05-16T01:59:34;12.77;;;11.55;;
30133;SDS011;16946;49.984;10.672;2023-05-16T02:00:06;13.80;;;12.20;;
30133;SDS011;16946;49.984;10.672;2023-05-16T02:00:38;12.20;;;11.02;;
30133;SDS011;16946;49.984;10.672;2023-05-16T02:01:11;13.40;;;12.00;;
30133;SDS011;16946;49.984;10.672;2023-05-16T02:01:42;12.77;;;11.67;;
30133;SDS011;16946;49.984;10.672;2023-05-16T02:02:13;12.83;;;11.73;;
30133;SDS011;16946;49.984;10.672;2023-05-16T02:02:47;13.13;;;11.80;;
30133;SDS011;16946;49.984;10.672;2023-05-16T02:03:18;12.70;;;11.60;;
30133;SDS011;16946;49.984;10.672;2023-05-16T02:03:48;11.97;;;10.97;;
30133;SDS011;16946;49.984;10.672;2023-05-16T02:04:20;12.20;;;11.00;;
30133;SDS011;16946;49.984;10.672;2023-05-16T02:04:51;11.70;;;10.63;;
30133;SDS011;16946;49.984;10.672;2023-05-16T02:05:21;12.80;;;11.60;;
30133;SDS011;16946;49.984;10.672;2023-05-16T02:05:52;14.13;;;10.87;;
30133;SDS011;16946;49.984;10.672;2023-05-16T02:06:22;11.83;;;10.73;;
30133;SDS011;16946;49.984;10.672;2023-05-16T02:06:54;11.43;;;10.45;;
30133;SDS011;16946;49.984;10.672;2023-05-16T02:07:25;16.52;;;10.75;;
30133;SDS011;16946;49.984;10.672;2023-05-16T02:07:56;10.90;;;10.00;;
30133;SDS011;16946;49.984;10.672;2023-05-16T02:08:28;11.77;;;10.57;;
30133;SDS011;16946;49.984;10.672;2023-05-16T02:08:58;10.97;;;10.07;;
30133;SDS011;16946;49.984;10.672;2023-05-16T02:09:29;11.47;;;9.97;;
30133;SDS011;16946;49.984;10.672;2023-05-16T02:10:00;12.30;;;11.07;;
30133;SDS011;16946;49.984;10.672;2023-05-16T02:10:30;12.27;;;11.07;;
30133;SDS011;16946;49.984;10.672;2023-05-16T02:11:01;12.13;;;10.90;;
30133;SDS011;16946;49.984;10.672;2023-05-16T02:11:32;10.80;;;9.80;;
30133;SDS011;16946;49.984;10.672;2023-05-16T02:12:03;11.40;;;10.33;;
30133;SDS011;16946;49.984;10.672;2023-05-16T02:12:33;11.20;;;10.13;;
30133;SDS011;16946;49.984;10.672;2023-05-16T02:13:05;10.82;;;9.73;;
30133;SDS011;16946;49.984;10.672;2023-05-16T02:13:36;12.07;;;10.90;;
30133;SDS011;16946;49.984;10.672;2023-05-16T02:14:06;12.67;;;11.13;;
30133;SDS011;16946;49.984;10.672;2023-05-16T02:14:37;13.03;;;11.83;;
30133;SDS011;16946;49.984;10.672;2023-05-16T02:15:07;13.20;;;11.83;;
30133;SDS011;16946;49.984;10.672;2023-05-16T02:15:39;13.18;;;11.02;;
30133;SDS011;16946;49.984;10.672;2023-05-16T02:16:09;12.10;;;10.90;;
30133;SDS011;16946;49.984;10.672;2023-05-16T02:16:40;12.18;;;11.07;;
30133;SDS011;16946;49.984;10.672;2023-05-16T02:17:11;10.70;;;9.70;;
30133;SDS011;16946;49.984;10.672;2023-05-16T02:17:41;11.10;;;10.10;;
30133;SDS011;16946;49.984;10.672;2023-05-16T02:18:12;12.67;;;10.50;;
30133;SDS011;16946;49.984;10.672;2023-05-16T02:18:42;11.97;;;10.83;;
30133;SDS011;16946;49.984;10.672;2023-05-16T02:19:14;11.90;;;9.52;;
30133;SDS011;16946;49.984;10.672;2023-05-16T02:19:45;11.20;;;10.20;;
30133;SDS011;16946;49.984;10.672;2023-05-16T02:20:15;12.40;;;11.30;;
30133;SDS011;16946;49.984;10.672;2023-05-16T02:20:46;10.70;;;9.83;;
30133;SDS011;16946;49.984;10.672;2023-05-16T02:21:16;12.10;;;11.00;;
30133;SDS011;16946;49.984;10.672;2023-05-16T02:21:47;11.03;;;10.03;;
30133;SDS011;16946;49.984;10.672;2023-05-16T02:22:17;12.60;;;11.30;;
30133;SDS011;16946;49.984;10.672;2023-05-16T02:22:48;13.47;;;9.90;;
30133;SDS011;16946;49.984;10.672;2023-05-16T02:23:19;11.33;;;10.40;;
30133;SDS011;16946;49.984;10.672;2023-05-16T02:23:49;11.00;;;10.00;;
30133;SDS011;16946;49.984;10.672;2023-05-16T02:24:20;11.73;;;10.63;;
30133;SDS011;16946;49.984;10.672;2023-05-16T02:24:50;10.23;;;9.33;;
30133;SDS011;16946;49.984;10.672;2023-05-16T02:25:21;11.68;;;10.63;;
30133;SDS011;16946;49.984;10.672;2023-05-16T02:25:52;10.97;;;9.83;;
30133;SDS011;16946;49.984;10.672;2023-05-16T02:26:23;10.90;;;9.90;;
30133;SDS011;16946;49.984;10.672;2023-05-16T02:26:53;10.90;;;9.80;;
30133;SDS011;16946;49.984;10.672;2023-05-16T02:27:24;10.80;;;9.90;;
30133;SDS011;16946;49.984;10.672;2023-05-16T02:27:55;10.55;;;9.45;;
30133;SDS011;16946;49.984;10.672;2023-05-16T02:28:25;10.90;;;9.93;;
30133;SDS011;16946;49.984;10.672;2023-05-16T02:28:56;13.13;;;10.27;;
30133;SDS011;16946;49.984;10.672;2023-05-16T02:29:27;10.70;;;9.60;;
30133;SDS011;16946;49.984;10.672;2023-05-16T02:29:57;11.80;;;10.27;;
30133;SDS011;16946;49.984;10.672;2023-05-16T02:30:28;10.60;;;9.60;;
30133;SDS011;16946;49.984;10.672;2023-05-16T02:30:59;9.77;;;8.87;;
30133;SDS011;16946;49.984;10.672;2023-05-16T02:31:30;11.07;;;10.07;;
30133;SDS011;16946;49.984;10.672;2023-05-16T02:32:02;10.63;;;9.63;;
30133;SDS011;16946;49.984;10.672;2023-05-16T02:32:33;11.25;;;10.15;;
30133;SDS011;16946;49.984;10.672;2023-05-16T02:33:04;9.73;;;8.83;;
30133;SDS011;16946;49.984;10.672;2023-05-16T02:33:35;11.37;;;9.97;;
30133;SDS011;16946;49.984;10.672;2023-05-16T02:34:05;10.67;;;9.07;;
30133;SDS011;16946;49.984;10.672;2023-05-16T02:34:36;10.20;;;9.30;;
30133;SDS011;16946;49.984;10.672;2023-05-16T02:35:06;10.47;;;9.43;;
30133;SDS011;16946;49.984;10.672;2023-05-16T02:35:37;10.10;;;9.20;;
30133;SDS011;16946;49.984;10.672;2023-05-16T02:36:08;10.67;;;9.67;;
30133;SDS011;16946;49.984;10.672;2023-05-16T02:36:38;9.83;;;8.93;;
30133;SDS011;16946;49.984;10.672;2023-05-16T02:37:09;9.57;;;8.67;;
30133;SDS011;16946;49.984;10.672;2023-05-16T02:37:40;10.40;;;9.50;;
30133;SDS011;16946;49.984;10.672;2023-05-16T02:38:10;9.97;;;9.17;;
30133;SDS011;16946;49.984;10.672;2023-05-16T02:38:46;9.63;;;8.82;;
30133;SDS011;16946;49.984;10.672;2023-05-16T02:39:16;9.60;;;7.97;;
30133;SDS011;16946;49.984;10.672;2023-05-16T02:39:47;10.43;;;9.00;;
30133;SDS011;16946;49.984;10.672;2023-05-16T02:40:18;10.83;;;9.80;;
30133;SDS011;16946;49.984;10.672;2023-05-16T02:40:48;10.60;;;9.50;;
30133;SDS011;16946;49.984;10.672;2023-05-16T02:41:19;10.18;;;9.27;;
30133;SDS011;16946;49.984;10.672;2023-05-16T02:41:51;10.07;;;9.13;;
30133;SDS011;16946;49.984;10.672;2023-05-16T02:42:21;11.03;;;9.73;;
30133;SDS011;16946;49.984;10.672;2023-05-16T02:42:52;10.33;;;9.43;;
30133;SDS011;16946;49.984;10.672;2023-05-16T02:43:22;9.60;;;8.70;;
30133;SDS011;16946;49.984;10.672;2023-05-16T02:43:53;9.47;;;8.47;;
30133;SDS011;16946;49.984;10.672;2023-05-16T02:44:23;9.73;;;8.80;;
30133;SDS011;16946;49.984;10.672;2023-05-16T02:44:54;9.10;;;8.40;;
30133;SDS011;16946;49.984;10.672;2023-05-16T02:45:25;10.17;;;8.90;;
30133;SDS011;16946;49.984;10.672;2023-05-16T02:45:55;12.27;;;9.30;;
30133;SDS011;16946;49.984;10.672;2023-05-16T02:46:30;9.37;;;8.57;;
30133;SDS011;16946;49.984;10.672;2023-05-16T02:47:02;9.32;;;8.52;;
30133;SDS011;16946;49.984;10.672;2023-05-16T02:47:33;10.23;;;9.33;;
30133;SDS011;16946;49.984;10.672;2023-05-16T02:48:03;9.77;;;8.90;;
30133;SDS011;16946;49.984;10.672;2023-05-16T02:48:34;10.90;;;9.20;;
30133;SDS011;16946;49.984;10.672;2023-05-16T02:49:04;8.77;;;8.07;;
30133;SDS011;16946;49.984;10.672;2023-05-16T02:49:35;9.57;;;8.67;;
30133;SDS011;16946;49.984;10.672;2023-05-16T02:50:06;9.47;;;8.23;;
30133;SDS011;16946;49.984;10.672;2023-05-16T02:50:36;10.03;;;8.73;;
30133;SDS011;16946;49.984;10.672;2023-05-16T02:51:09;8.98;;;8.10;;
30133;SDS011;16946;49.984;10.672;2023-05-16T02:51:39;9.90;;;8.90;;
30133;SDS011;16946;49.984;10.672;2023-05-16T02:52:10;12.97;;;8.67;;
30133;SDS011;16946;49.984;10.672;2023-05-16T02:52:42;9.07;;;8.18;;
30133;SDS011;16946;49.984;10.672;2023-05-16T02:53:12;8.80;;;7.90;;
30133;SDS011;16946;49.984;10.672;2023-05-16T02:53:43;9.10;;;8.20;;
30133;SDS011;16946;49.984;10.672;2023-05-16T02:54:13;9.80;;;8.93;;
30133;SDS011;16946;49.984;10.672;2023-05-16T02:54:44;8.90;;;8.00;;
30133;SDS011;16946;49.984;10.672;2023-05-16T02:55:15;9.90;;;8.40;;
30133;SDS011;16946;49.984;10.672;2023-05-16T02:55:45;12.90;;;9.00;;
30133;SDS011;16946;49.984;10.672;2023-05-16T02:56:16;8.90;;;8.10;;
30133;SDS011;16946;49.984;10.672;2023-05-16T02:56:47;8.80;;;7.95;;
30133;SDS011;16946;49.984;10.672;2023-05-16T02:57:18;9.15;;;8.45;;
30133;SDS011;16946;49.984;10.672;2023-05-16T02:57:49;9.33;;;8.53;;
30133;SDS011;16946;49.984;10.672;2023-05-16T02:58:20;9.40;;;8.43;;
30133;SDS011;16946;49.984;10.672;2023-05-16T02:58:52;8.80;;;8.00;;
30133;SDS011;16946;49.984;10.672;2023-05-16T02:59:23;9.27;;;8.40;;
30133;SDS011;16946;49.984;10.672;2023-05-16T02:59:54;9.00;;;8.17;;
30133;SDS011;16946;49.984;10.672;2023-05-16T03:00:25;9.80;;;8.13;;
30133;SDS011;16946;49.984;10.672;2023-05-16T03:00:56;8.53;;;7.83;;
30133;SDS011;16946;49.984;10.672;2023-05-16T03:01:27;9.32;;;8.38;;
30133;SDS011;16946;49.984;10.672;2023-05-16T03:01:57;8.80;;;7.90;;
30133;SDS011;16946;49.984;10.672;2023-05-16T03:02:28;9.60;;;8.10;;
30133;SDS011;16946;49.984;10.672;2023-05-16T03:02:59;10.87;;;8.50;;
30133;SDS011;16946;49.984;10.672;2023-05-16T03:03:30;9.70;;;8.80;;
30133;SDS011;16946;49.984;10.672;2023-05-16T03:04:02;9.60;;;8.55;;
30133;SDS011;16946;49.984;10.672;2023-05-16T03:04:33;9.43;;;8.43;;
30133;SDS011;16946;49.984;10.672;2023-05-16T03:05:03;9.40;;;8.50;;
30133;SDS011;16946;49.984;10.672;2023-05-16T03:05:35;8.65;;;7.85;;
30133;SDS011;16946;49.984;10.672;2023-05-16T03:06:06;9.45;;;8.60;;
30133;SDS011;16946;49.984;10.672;2023-05-16T03:06:37;9.67;;;8.77;;
30133;SDS011;16946;49.984;10.672;2023-05-16T03:07:07;8.70;;;7.90;;
30133;SDS011;16946;49.984;10.672;2023-05-16T03:07:38;9.17;;;8.37;;
30133;SDS011;16946;49.984;10.672;2023-05-16T03:08:08;9.87;;;8.43;;
30133;SDS011;16946;49.984;10.672;2023-05-16T03:08:40;9.02;;;8.13;;
30133;SDS011;16946;49.984;10.672;2023-05-16T03:09:10;8.73;;;7.77;;
30133;SDS011;16946;49.984;10.672;2023-05-16T03:09:41;8.23;;;7.53;;
30133;SDS011;16946;49.984;10.672;2023-05-16T03:10:11;8.63;;;7.83;;
30133;SDS011;16946;49.984;10.672;2023-05-16T03:10:42;9.07;;;8.20;;
30133;SDS011;16946;49.984;10.672;2023-05-16T03:11:13;8.37;;;7.50;;
30133;SDS011;16946;49.984;10.672;2023-05-16T03:11:44;8.82;;;7.90;;
30133;SDS011;16946;49.984;10.672;2023-05-16T03:12:15;9.13;;;8.23;;
30133;SDS011;16946;49.984;10.672;2023-05-16T03:12:45;8.97;;;8.07;;
30133;SDS011;16946;49.984;10.672;2023-05-16T03:13:15;9.90;;;8.40;;
30133;SDS011;16946;49.984;10.672;2023-05-16T03:13:46;9.77;;;8.87;;
30133;SDS011;16946;49.984;10.672;2023-05-16T03:14:17;10.68;;;8.55;;
30133;SDS011;16946;49.984;10.672;2023-05-16T03:14:48;9.70;;;8.80;;
30133;SDS011;16946;49.984;10.672;2023-05-16T03:15:18;8.60;;;7.70;;
30133;SDS011;16946;49.984;10.672;2023-05-16T03:15:49;9.43;;;8.63;;
30133;SDS011;16946;49.984;10.672;2023-05-16T03:16:20;10.52;;;9.05;;
30133;SDS011;16946;49.984;10.672;2023-05-16T03:16:51;8.80;;;8.00;;
30133;SDS011;16946;49.984;10.672;2023-05-16T03:17:21;9.30;;;8.50;;
30133;SDS011;16946;49.984;10.672;2023-05-16T03:17:52;10.03;;;9.13;;
30133;SDS011;16946;49.984;10.672;2023-05-16T03:18:22;9.33;;;8.53;;
30133;SDS011;16946;49.984;10.672;2023-05-16T03:18:53;9.40;;;8.53;;
30133;SDS011;16946;49.984;10.672;2023-05-16T03:19:23;9.50;;;8.70;;
30133;SDS011;16946;49.984;10.672;2023-05-16T03:19:54;9.30;;;8.40;;
30133;SDS011;16946;49.984;10.672;2023-05-16T03:20:25;11.77;;;9.03;;
30133;SDS011;16946;49.984;10.672;2023-05-16T03:20:55;8.83;;;8.03;;
30133;SDS011;16946;49.984;10.672;2023-05-16T03:21:26;9.00;;;8.20;;
30133;SDS011;16946;49.984;10.672;2023-05-16T03:21:57;9.13;;;8.27;;